sensor_id;sensor_type;location;lat;lon;timestamp;pressure;altitude;pressure_sealevel;temperature;humidity
40171;BME280;37650;52.790;18.268;2023-01-28T00:01:16;101510.02;;;-1.55;100.00
40171;BME280;37650;52.790;18.268;2023-01-28T00:04:37;101507.61;;;-1.61;100.00
40171;BME280;37650;52.790;18.268;2023-01-28T00:08:00;101516.00;;;-1.62;100.00
40171;BME280;37650;52.790;18.268;2023-01-28T00:11:21;101512.95;;;-1.61;100.00
40171;BME280;37650;52.790;18.268;2023-01-28T00:14:42;101504.36;;;-1.60;100.00
40171;BME280;37650;52.790;18.268;2023-01-28T00:18:06;101502.91;;;-1.62;100.00
40171;BME280;37650;52.790;18.268;2023-01-28T00:21:27;101504.77;;;-1.64;100.00
40171;BME280;37650;52.790;18.268;2023-01-28T00:24:48;101507.46;;;-1.66;100.00
40171;BME280;37650;52.790;18.268;2023-01-28T00:28:09;101505.02;;;-1.67;100.00
40171;BME280;37650;52.790;18.268;2023-01-28T00:31:31;101501.16;;;-1.69;100.00
40171;BME280;37650;52.790;18.268;2023-01-28T00:34:54;101498.08;;;-1.68;100.00
40171;BME280;37650;52.790;18.268;2023-01-28T00:38:15;101496.41;;;-1.67;100.00
40171;BME280;37650;52.790;18.268;2023-01-28T00:41:36;101491.48;;;-1.65;100.00
40171;BME280;37650;52.790;18.268;2023-01-28T00:44:57;101490.80;;;-1.64;100.00
40171;BME280;37650;52.790;18.268;2023-01-28T00:48:19;101487.56;;;-1.69;100.00
40171;BME280;37650;52.790;18.268;2023-01-28T00:51:40;101485.13;;;-1.71;100.00
40171;BME280;37650;52.790;18.268;2023-01-28T00:55:02;101485.55;;;-1.74;100.00
40171;BME280;37650;52.790;18.268;2023-01-28T00:58:23;101486.88;;;-1.75;100.00
40171;BME280;37650;52.790;18.268;2023-01-28T01:01:44;101490.58;;;-1.73;100.00
40171;BME280;37650;52.790;18.268;2023-01-28T01:05:06;101491.66;;;-1.71;100.00
40171;BME280;37650;52.790;18.268;2023-01-28T01:08:28;101496.34;;;-1.69;100.00
40171;BME280;37650;52.790;18.268;2023-01-28T01:11:54;101500.63;;;-1.70;100.00
40171;BME280;37650;52.790;18.268;2023-01-28T01:15:17;101499.73;;;-1.72;100.00
40171;BME280;37650;52.790;18.268;2023-01-28T01:18:39;101498.13;;;-1.73;100.00
40171;BME280;37650;52.790;18.268;2023-01-28T01:22:04;101495.06;;;-1.73;100.00
40171;BME280;37650;52.790;18.268;2023-01-28T01:25:25;101492.71;;;-1.70;100.00
40171;BME280;37650;52.790;18.268;2023-01-28T01:28:47;101497.10;;;-1.67;100.00
40171;BME280;37650;52.790;18.268;2023-01-28T01:32:08;101497.11;;;-1.67;100.00
40171;BME280;37650;52.790;18.268;2023-01-28T01:35:29;101499.63;;;-1.69;100.00
40171;BME280;37650;52.790;18.268;2023-01-28T01:38:54;101503.23;;;-1.75;100.00
40171;BME280;37650;52.790;18.268;2023-01-28T01:42:15;101500.58;;;-1.77;100.00
40171;BME280;37650;52.790;18.268;2023-01-28T01:45:36;101498.63;;;-1.79;100.00
40171;BME280;37650;52.790;18.268;2023-01-28T01:49:02;101496.16;;;-1.81;100.00
40171;BME280;37650;52.790;18.268;2023-01-28T01:52:31;101491.71;;;-1.80;100.00
40171;BME280;37650;52.790;18.268;2023-01-28T01:55:58;101485.99;;;-1.75;100.00
40171;BME280;37650;52.790;18.268;2023-01-28T01:59:27;101484.12;;;-1.75;100.00
40171;BME280;37650;52.790;18.268;2023-01-28T02:02:50;101484.71;;;-1.79;100.00
40171;BME280;37650;52.790;18.268;2023-01-28T02:06:12;101485.48;;;-1.82;100.00
40171;BME280;37650;52.790;18.268;2023-01-28T02:09:35;101489.16;;;-1.85;100.00
40171;BME280;37650;52.790;18.268;2023-01-28T02:12:58;101484.75;;;-1.88;100.00
40171;BME280;37650;52.790;18.268;2023-01-28T02:16:20;101484.14;;;-1.86;100.00
40171;BME280;37650;52.790;18.268;2023-01-28T02:20:07;101489.92;;;-1.83;100.00
40171;BME280;37650;52.790;18.268;2023-01-28T02:30:42;101496.11;;;-1.88;100.00
40171;BME280;37650;52.790;18.268;2023-01-28T02:34:18;101494.96;;;-1.86;100.00
40171;BME280;37650;52.790;18.268;2023-01-28T02:37:49;101491.45;;;-1.88;100.00
40171;BME280;37650;52.790;18.268;2023-01-28T02:41:22;101489.33;;;-1.90;100.00
40171;BME280;37650;52.790;18.268;2023-01-28T02:44:45;101490.06;;;-1.89;100.00
40171;BME280;37650;52.790;18.268;2023-01-28T02:48:06;101493.60;;;-1.86;100.00
40171;BME280;37650;52.790;18.268;2023-01-28T02:51:50;101493.34;;;-1.83;100.00
40171;BME280;37650;52.790;18.268;2023-01-28T03:00:09;101487.20;;;-1.87;100.00
40171;BME280;37650;52.790;18.268;2023-01-28T03:07:02;101493.59;;;-1.91;100.00
40171;BME280;37650;52.790;18.268;2023-01-28T03:10:26;101493.70;;;-1.93;100.00
40171;BME280;37650;52.790;18.268;2023-01-28T03:13:48;101492.34;;;-1.93;100.00
40171;BME280;37650;52.790;18.268;2023-01-28T03:17:40;101488.90;;;-1.93;100.00
40171;BME280;37650;52.790;18.268;2023-01-28T03:21:48;101495.58;;;-1.94;100.00
40171;BME280;37650;52.790;18.268;2023-01-28T03:25:28;101495.42;;;-1.94;100.00
40171;BME280;37650;52.790;18.268;2023-01-28T03:29:11;101497.00;;;-1.92;100.00
40171;BME280;37650;52.790;18.268;2023-01-28T03:32:54;101488.92;;;-1.98;100.00
40171;BME280;37650;52.790;18.268;2023-01-28T03:36:36;101488.22;;;-1.98;100.00
40171;BME280;37650;52.790;18.268;2023-01-28T03:40:50;101490.73;;;-1.95;100.00
40171;BME280;37650;52.790;18.268;2023-01-28T03:44:13;101494.81;;;-1.91;100.00
40171;BME280;37650;52.790;18.268;2023-01-28T03:47:54;101492.73;;;-1.86;100.00
40171;BME280;37650;52.790;18.268;2023-01-28T03:51:15;101497.92;;;-1.85;100.00
40171;BME280;37650;52.790;18.268;2023-01-28T03:54:38;101501.52;;;-1.85;100.00
40171;BME280;37650;52.790;18.268;2023-01-28T03:57:59;101503.36;;;-1.87;100.00
40171;BME280;37650;52.790;18.268;2023-01-28T04:01:20;101506.40;;;-1.89;100.00
40171;BME280;37650;52.790;18.268;2023-01-28T04:04:41;101505.59;;;-1.93;100.00
40171;BME280;37650;52.790;18.268;2023-01-28T04:08:03;101506.17;;;-1.90;100.00
40171;BME280;37650;52.790;18.268;2023-01-28T04:11:35;101506.73;;;-1.89;100.00
40171;BME280;37650;52.790;18.268;2023-01-28T04:14:58;101510.23;;;-1.88;100.00
40171;BME280;37650;52.790;18.268;2023-01-28T04:18:21;101511.32;;;-1.86;100.00
40171;BME280;37650;52.790;18.268;2023-01-28T04:21:50;101514.56;;;-1.87;100.00
40171;BME280;37650;52.790;18.268;2023-01-28T04:25:14;101513.02;;;-1.86;100.00
40171;BME280;37650;52.790;18.268;2023-01-28T04:28:37;101513.54;;;-1.86;100.00
40171;BME280;37650;52.790;18.268;2023-01-28T04:31:58;101513.27;;;-1.89;100.00
40171;BME280;37650;52.790;18.268;2023-01-28T04:35:33;101510.24;;;-1.87;100.00
40171;BME280;37650;52.790;18.268;2023-01-28T04:39:04;101507.18;;;-1.86;100.00
40171;BME280;37650;52.790;18.268;2023-01-28T04:42:32;101512.61;;;-1.83;100.00
40171;BME280;37650;52.790;18.268;2023-01-28T04:46:04;101511.75;;;-1.83;100.00
40171;BME280;37650;52.790;18.268;2023-01-28T04:49:34;101507.83;;;-1.87;100.00
40171;BME280;37650;52.790;18.268;2023-01-28T04:53:16;101506.23;;;-1.89;100.00
40171;BME280;37650;52.790;18.268;2023-01-28T04:56:54;101508.98;;;-1.89;100.00
40171;BME280;37650;52.790;18.268;2023-01-28T05:00:17;101513.34;;;-1.87;100.00
40171;BME280;37650;52.790;18.268;2023-01-28T05:03:38;101513.96;;;-1.84;100.00
40171;BME280;37650;52.790;18.268;2023-01-28T05:07:01;101507.86;;;-1.81;100.00
40171;BME280;37650;52.790;18.268;2023-01-28T05:10:26;101509.42;;;-1.80;100.00
40171;BME280;37650;52.790;18.268;2023-01-28T05:13:48;101516.70;;;-1.79;100.00
40171;BME280;37650;52.790;18.268;2023-01-28T05:17:11;101517.52;;;-1.80;100.00
40171;BME280;37650;52.790;18.268;2023-01-28T05:20:33;101515.99;;;-1.85;100.00
40171;BME280;37650;52.790;18.268;2023-01-28T05:23:55;101512.86;;;-1.86;100.00
40171;BME280;37650;52.790;18.268;2023-01-28T05:27:17;101518.66;;;-1.82;100.00
40171;BME280;37650;52.790;18.268;2023-01-28T05:30:39;101524.14;;;-1.78;100.00
40171;BME280;37650;52.790;18.268;2023-01-28T05:34:00;101524.38;;;-1.75;100.00
40171;BME280;37650;52.790;18.268;2023-01-28T05:37:22;101526.40;;;-1.77;100.00
40171;BME280;37650;52.790;18.268;2023-01-28T05:40:47;101530.02;;;-1.77;100.00
40171;BME280;37650;52.790;18.268;2023-01-28T05:44:09;101525.84;;;-1.78;100.00
40171;BME280;37650;52.790;18.268;2023-01-28T05:47:49;101527.99;;;-1.81;100.00
40171;BME280;37650;52.790;18.268;2023-01-28T05:51:19;101528.64;;;-1.82;100.00
40171;BME280;37650;52.790;18.268;2023-01-28T05:54:47;101526.95;;;-1.81;100.00
40171;BME280;37650;52.790;18.268;2023-01-28T05:58:08;101536.02;;;-1.78;100.00
40171;BME280;37650;52.790;18.268;2023-01-28T06:01:31;101538.44;;;-1.77;100.00
40171;BME280;37650;52.790;18.268;2023-01-28T06:04:52;101542.48;;;-1.74;100.00
40171;BME280;37650;52.790;18.268;2023-01-28T06:08:14;101542.16;;;-1.73;100.00
40171;BME280;37650;52.790;18.268;2023-01-28T06:11:35;101547.94;;;-1.75;100.00
40171;BME280;37650;52.790;18.268;2023-01-28T06:14:58;101548.08;;;-1.76;100.00
40171;BME280;37650;52.790;18.268;2023-01-28T06:18:45;101547.61;;;-1.80;100.00
40171;BME280;37650;52.790;18.268;2023-01-28T06:22:07;101555.84;;;-1.81;100.00
40171;BME280;37650;52.790;18.268;2023-01-28T06:25:28;101553.70;;;-1.79;100.00
40171;BME280;37650;52.790;18.268;2023-01-28T06:28:54;101555.89;;;-1.74;100.00
40171;BME280;37650;52.790;18.268;2023-01-28T06:32:15;101558.84;;;-1.68;100.00
40171;BME280;37650;52.790;18.268;2023-01-28T06:35:36;101565.34;;;-1.69;100.00
40171;BME280;37650;52.790;18.268;2023-01-28T06:38:57;101568.21;;;-1.71;100.00
40171;BME280;37650;52.790;18.268;2023-01-28T06:42:18;101570.63;;;-1.76;100.00
40171;BME280;37650;52.790;18.268;2023-01-28T06:45:40;101573.25;;;-1.75;100.00
40171;BME280;37650;52.790;18.268;2023-01-28T06:49:01;101578.13;;;-1.73;100.00
40171;BME280;37650;52.790;18.268;2023-01-28T06:52:22;101576.58;;;-1.67;100.00
40171;BME280;37650;52.790;18.268;2023-01-28T06:56:17;101578.73;;;-1.64;100.00
40171;BME280;37650;52.790;18.268;2023-01-28T06:59:38;101587.02;;;-1.64;100.00
40171;BME280;37650;52.790;18.268;2023-01-28T07:02:59;101587.84;;;-1.64;100.00
40171;BME280;37650;52.790;18.268;2023-01-28T07:06:20;101586.32;;;-1.63;100.00
40171;BME280;37650;52.790;18.268;2023-01-28T07:09:42;101592.13;;;-1.65;100.00
40171;BME280;37650;52.790;18.268;2023-01-28T07:13:03;101587.37;;;-1.63;100.00
40171;BME280;37650;52.790;18.268;2023-01-28T07:16:24;101590.11;;;-1.58;100.00
40171;BME280;37650;52.790;18.268;2023-01-28T07:19:45;101597.77;;;-1.55;100.00
40171;BME280;37650;52.790;18.268;2023-01-28T07:23:06;101601.14;;;-1.52;100.00
40171;BME280;37650;52.790;18.268;2023-01-28T07:26:27;101595.33;;;-1.56;100.00
40171;BME280;37650;52.790;18.268;2023-01-28T07:29:48;101592.61;;;-1.61;100.00
40171;BME280;37650;52.790;18.268;2023-01-28T07:33:09;101588.49;;;-1.60;100.00
40171;BME280;37650;52.790;18.268;2023-01-28T07:36:31;101593.91;;;-1.58;100.00
40171;BME280;37650;52.790;18.268;2023-01-28T07:39:52;101597.86;;;-1.52;100.00
40171;BME280;37650;52.790;18.268;2023-01-28T07:43:13;101599.30;;;-1.45;100.00
40171;BME280;37650;52.790;18.268;2023-01-28T07:46:35;101593.73;;;-1.42;100.00
40171;BME280;37650;52.790;18.268;2023-01-28T07:49:57;101595.05;;;-1.38;100.00
40171;BME280;37650;52.790;18.268;2023-01-28T07:53:18;101595.76;;;-1.37;100.00
40171;BME280;37650;52.790;18.268;2023-01-28T07:56:40;101599.72;;;-1.37;100.00
40171;BME280;37650;52.790;18.268;2023-01-28T08:00:02;101597.69;;;-1.41;100.00
40171;BME280;37650;52.790;18.268;2023-01-28T08:03:33;101593.71;;;-1.42;100.00
40171;BME280;37650;52.790;18.268;2023-01-28T08:07:28;101591.91;;;-1.39;100.00
40171;BME280;37650;52.790;18.268;2023-01-28T08:10:50;101592.06;;;-1.35;100.00
40171;BME280;37650;52.790;18.268;2023-01-28T08:14:12;101594.60;;;-1.30;100.00
40171;BME280;37650;52.790;18.268;2023-01-28T08:17:33;101592.27;;;-1.27;100.00
40171;BME280;37650;52.790;18.268;2023-01-28T08:20:58;101590.73;;;-1.27;100.00
40171;BME280;37650;52.790;18.268;2023-01-28T08:24:19;101588.17;;;-1.26;100.00
40171;BME280;37650;52.790;18.268;2023-01-28T08:27:41;101597.33;;;-1.25;100.00
40171;BME280;37650;52.790;18.268;2023-01-28T08:31:02;101599.20;;;-1.26;100.00
40171;BME280;37650;52.790;18.268;2023-01-28T08:34:23;101595.25;;;-1.26;100.00
40171;BME280;37650;52.790;18.268;2023-01-28T08:37:44;101596.55;;;-1.22;100.00
40171;BME280;37650;52.790;18.268;2023-01-28T08:41:06;101596.94;;;-1.15;100.00
40171;BME280;37650;52.790;18.268;2023-01-28T08:44:27;101599.29;;;-1.11;100.00
40171;BME280;37650;52.790;18.268;2023-01-28T08:48:01;101598.86;;;-1.09;100.00
40171;BME280;37650;52.790;18.268;2023-01-28T08:51:23;101599.80;;;-1.06;100.00
40171;BME280;37650;52.790;18.268;2023-01-28T08:54:44;101604.51;;;-1.04;100.00
40171;BME280;37650;52.790;18.268;2023-01-28T08:58:10;101609.91;;;-1.02;100.00
40171;BME280;37650;52.790;18.268;2023-01-28T09:01:32;101605.34;;;-0.93;100.00
40171;BME280;37650;52.790;18.268;2023-01-28T09:04:53;101609.33;;;-0.87;100.00
40171;BME280;37650;52.790;18.268;2023-01-28T09:08:15;101606.52;;;-0.83;100.00
40171;BME280;37650;52.790;18.268;2023-01-28T09:11:37;101607.38;;;-0.76;100.00
40171;BME280;37650;52.790;18.268;2023-01-28T09:14:58;101604.94;;;-0.71;100.00
40171;BME280;37650;52.790;18.268;2023-01-28T09:18:19;101603.89;;;-0.66;100.00
40171;BME280;37650;52.790;18.268;2023-01-28T09:21:41;101601.37;;;-0.63;100.00
40171;BME280;37650;52.790;18.268;2023-01-28T09:25:02;101597.98;;;-0.61;100.00
40171;BME280;37650;52.790;18.268;2023-01-28T09:28:24;101597.96;;;-0.56;100.00
40171;BME280;37650;52.790;18.268;2023-01-28T09:31:45;101601.77;;;-0.50;100.00
40171;BME280;37650;52.790;18.268;2023-01-28T09:35:07;101604.17;;;-0.44;100.00
40171;BME280;37650;52.790;18.268;2023-01-28T09:38:29;101600.37;;;-0.43;100.00
40171;BME280;37650;52.790;18.268;2023-01-28T09:45:47;101598.09;;;-0.45;100.00
40171;BME280;37650;52.790;18.268;2023-01-28T09:49:22;101590.20;;;-0.43;100.00
40171;BME280;37650;52.790;18.268;2023-01-28T09:52:48;101588.49;;;-0.42;100.00
40171;BME280;37650;52.790;18.268;2023-01-28T09:56:33;101590.46;;;-0.40;100.00
40171;BME280;37650;52.790;18.268;2023-01-28T09:59:56;101590.55;;;-0.30;100.00
40171;BME280;37650;52.790;18.268;2023-01-28T10:03:59;101594.15;;;-0.24;100.00
40171;BME280;37650;52.790;18.268;2023-01-28T10:11:21;101589.36;;;-0.17;100.00
40171;BME280;37650;52.790;18.268;2023-01-28T10:15:17;101588.61;;;-0.18;100.00
40171;BME280;37650;52.790;18.268;2023-01-28T10:19:02;101582.16;;;-0.21;100.00
40171;BME280;37650;52.790;18.268;2023-01-28T10:22:29;101582.89;;;-0.20;100.00
40171;BME280;37650;52.790;18.268;2023-01-28T10:25:52;101584.82;;;-0.12;100.00
40171;BME280;37650;52.790;18.268;2023-01-28T10:29:22;101584.46;;;-0.12;100.00
40171;BME280;37650;52.790;18.268;2023-01-28T10:33:05;101592.89;;;-0.13;100.00
40171;BME280;37650;52.790;18.268;2023-01-28T10:36:32;101592.90;;;-0.19;100.00
40171;BME280;37650;52.790;18.268;2023-01-28T10:39:56;101593.54;;;-0.22;100.00
40171;BME280;37650;52.790;18.268;2023-01-28T10:43:22;101599.66;;;-0.18;100.00
40171;BME280;37650;52.790;18.268;2023-01-28T10:46:45;101602.25;;;-0.18;100.00
40171;BME280;37650;52.790;18.268;2023-01-28T10:50:22;101605.81;;;-0.20;100.00
40171;BME280;37650;52.790;18.268;2023-01-28T10:53:45;101601.66;;;-0.20;100.00
40171;BME280;37650;52.790;18.268;2023-01-28T10:57:11;101597.03;;;-0.19;100.00
40171;BME280;37650;52.790;18.268;2023-01-28T11:00:36;101595.22;;;-0.17;100.00
40171;BME280;37650;52.790;18.268;2023-01-28T11:03:57;101595.41;;;-0.15;100.00
40171;BME280;37650;52.790;18.268;2023-01-28T11:07:20;101600.85;;;-0.12;100.00
40171;BME280;37650;52.790;18.268;2023-01-28T11:10:42;101603.53;;;-0.08;100.00
40171;BME280;37650;52.790;18.268;2023-01-28T11:14:05;101592.29;;;-0.09;100.00
40171;BME280;37650;52.790;18.268;2023-01-28T11:17:29;101599.15;;;-0.11;100.00
40171;BME280;37650;52.790;18.268;2023-01-28T11:20:59;101599.45;;;-0.06;100.00
40171;BME280;37650;52.790;18.268;2023-01-28T11:24:24;101592.16;;;-0.02;100.00
40171;BME280;37650;52.790;18.268;2023-01-28T11:27:48;101586.59;;;0.04;100.00
40171;BME280;37650;52.790;18.268;2023-01-28T11:31:13;101582.88;;;0.07;100.00
40171;BME280;37650;52.790;18.268;2023-01-28T11:34:35;101572.54;;;0.08;100.00
40171;BME280;37650;52.790;18.268;2023-01-28T11:37:58;101569.74;;;0.07;100.00
40171;BME280;37650;52.790;18.268;2023-01-28T11:41:28;101569.39;;;0.06;100.00
40171;BME280;37650;52.790;18.268;2023-01-28T11:44:50;101567.04;;;0.02;100.00
40171;BME280;37650;52.790;18.268;2023-01-28T11:58:50;101566.36;;;-0.05;100.00
40171;BME280;37650;52.790;18.268;2023-01-28T12:02:52;101557.75;;;0.03;100.00
40171;BME280;37650;52.790;18.268;2023-01-28T12:06:49;101560.77;;;0.06;100.00
40171;BME280;37650;52.790;18.268;2023-01-28T12:14:16;101563.36;;;-0.08;100.00
40171;BME280;37650;52.790;18.268;2023-01-28T12:18:05;101562.74;;;-0.18;100.00
40171;BME280;37650;52.790;18.268;2023-01-28T12:21:51;101558.36;;;-0.21;100.00
40171;BME280;37650;52.790;18.268;2023-01-28T12:25:45;101551.41;;;-0.17;100.00
40171;BME280;37650;52.790;18.268;2023-01-28T12:40:57;101548.75;;;-0.26;100.00
40171;BME280;37650;52.790;18.268;2023-01-28T12:44:25;101552.52;;;-0.34;100.00
40171;BME280;37650;52.790;18.268;2023-01-28T12:47:54;101559.15;;;-0.37;100.00
40171;BME280;37650;52.790;18.268;2023-01-28T12:51:23;101554.86;;;-0.36;100.00
40171;BME280;37650;52.790;18.268;2023-01-28T12:58:38;101559.89;;;-0.29;100.00
40171;BME280;37650;52.790;18.268;2023-01-28T13:02:05;101558.48;;;-0.23;100.00
40171;BME280;37650;52.790;18.268;2023-01-28T13:05:40;101554.99;;;-0.25;100.00
40171;BME280;37650;52.790;18.268;2023-01-28T13:09:22;101558.19;;;-0.35;100.00
40171;BME280;37650;52.790;18.268;2023-01-28T13:12:45;101557.23;;;-0.44;100.00
40171;BME280;37650;52.790;18.268;2023-01-28T13:16:08;101561.88;;;-0.52;100.00
40171;BME280;37650;52.790;18.268;2023-01-28T13:19:40;101557.94;;;-0.57;100.00
40171;BME280;37650;52.790;18.268;2023-01-28T13:23:04;101557.25;;;-0.63;100.00
40171;BME280;37650;52.790;18.268;2023-01-28T13:26:56;101560.00;;;-0.70;100.00
40171;BME280;37650;52.790;18.268;2023-01-28T13:30:26;101561.81;;;-0.73;100.00
40171;BME280;37650;52.790;18.268;2023-01-28T13:37:22;101561.51;;;-0.72;100.00
40171;BME280;37650;52.790;18.268;2023-01-28T13:40:59;101552.81;;;-0.74;100.00
40171;BME280;37650;52.790;18.268;2023-01-28T13:44:30;101550.23;;;-0.74;100.00
40171;BME280;37650;52.790;18.268;2023-01-28T13:48:13;101549.40;;;-0.73;100.00
40171;BME280;37650;52.790;18.268;2023-01-28T13:51:39;101557.36;;;-0.78;100.00
40171;BME280;37650;52.790;18.268;2023-01-28T13:55:32;101560.75;;;-0.80;100.00
40171;BME280;37650;52.790;18.268;2023-01-28T13:59:20;101555.79;;;-0.85;100.00
40171;BME280;37650;52.790;18.268;2023-01-28T14:03:26;101565.81;;;-0.90;100.00
40171;BME280;37650;52.790;18.268;2023-01-28T14:07:05;101568.18;;;-0.92;100.00
40171;BME280;37650;52.790;18.268;2023-01-28T14:14:35;101570.00;;;-0.94;100.00
40171;BME280;37650;52.790;18.268;2023-01-28T14:18:04;101565.88;;;-1.00;100.00
40171;BME280;37650;52.790;18.268;2023-01-28T14:21:33;101569.73;;;-1.03;100.00
40171;BME280;37650;52.790;18.268;2023-01-28T14:24:59;101576.11;;;-1.04;100.00
40171;BME280;37650;52.790;18.268;2023-01-28T14:28:39;101578.36;;;-1.08;100.00
40171;BME280;37650;52.790;18.268;2023-01-28T14:32:25;101573.09;;;-1.12;100.00
40171;BME280;37650;52.790;18.268;2023-01-28T14:35:49;101576.15;;;-1.14;100.00
40171;BME280;37650;52.790;18.268;2023-01-28T14:39:20;101574.98;;;-1.18;100.00
40171;BME280;37650;52.790;18.268;2023-01-28T14:42:46;101564.49;;;-1.23;100.00
40171;BME280;37650;52.790;18.268;2023-01-28T14:46:46;101569.68;;;-1.22;100.00
40171;BME280;37650;52.790;18.268;2023-01-28T14:50:27;101565.61;;;-1.21;100.00
40171;BME280;37650;52.790;18.268;2023-01-28T14:54:04;101567.06;;;-1.18;100.00
40171;BME280;37650;52.790;18.268;2023-01-28T14:57:52;101567.40;;;-1.19;100.00
40171;BME280;37650;52.790;18.268;2023-01-28T15:01:25;101564.10;;;-1.19;100.00
40171;BME280;37650;52.790;18.268;2023-01-28T15:04:47;101568.63;;;-1.18;100.00
40171;BME280;37650;52.790;18.268;2023-01-28T15:08:19;101567.34;;;-1.20;100.00
40171;BME280;37650;52.790;18.268;2023-01-28T15:11:42;101563.32;;;-1.22;100.00
40171;BME280;37650;52.790;18.268;2023-01-28T15:15:29;101567.20;;;-1.25;100.00
40171;BME280;37650;52.790;18.268;2023-01-28T15:18:51;101557.68;;;-1.27;100.00
40171;BME280;37650;52.790;18.268;2023-01-28T15:22:14;101552.83;;;-1.28;100.00
40171;BME280;37650;52.790;18.268;2023-01-28T15:25:35;101558.48;;;-1.30;100.00
40171;BME280;37650;52.790;18.268;2023-01-28T15:28:57;101557.99;;;-1.34;100.00
40171;BME280;37650;52.790;18.268;2023-01-28T15:32:27;101548.89;;;-1.39;100.00
40171;BME280;37650;52.790;18.268;2023-01-28T15:35:51;101547.83;;;-1.40;100.00
40171;BME280;37650;52.790;18.268;2023-01-28T15:39:18;101551.50;;;-1.38;100.00
40171;BME280;37650;52.790;18.268;2023-01-28T15:42:40;101549.92;;;-1.34;100.00
40171;BME280;37650;52.790;18.268;2023-01-28T15:46:02;101538.73;;;-1.33;100.00
40171;BME280;37650;52.790;18.268;2023-01-28T15:49:28;101538.05;;;-1.33;100.00
40171;BME280;37650;52.790;18.268;2023-01-28T15:52:52;101538.36;;;-1.35;100.00
40171;BME280;37650;52.790;18.268;2023-01-28T15:56:24;101533.04;;;-1.34;100.00
40171;BME280;37650;52.790;18.268;2023-01-28T15:59:45;101531.35;;;-1.32;100.00
40171;BME280;37650;52.790;18.268;2023-01-28T16:03:19;101517.16;;;-1.41;100.00
40171;BME280;37650;52.790;18.268;2023-01-28T16:06:40;101512.27;;;-1.55;100.00
40171;BME280;37650;52.790;18.268;2023-01-28T16:10:03;101513.36;;;-1.58;100.00
40171;BME280;37650;52.790;18.268;2023-01-28T16:13:26;101523.08;;;-1.56;100.00
40171;BME280;37650;52.790;18.268;2023-01-28T16:16:49;101510.61;;;-1.58;100.00
40171;BME280;37650;52.790;18.268;2023-01-28T16:20:23;101508.06;;;-1.63;100.00
40171;BME280;37650;52.790;18.268;2023-01-28T16:24:21;101517.19;;;-1.63;100.00
40171;BME280;37650;52.790;18.268;2023-01-28T16:27:44;101527.36;;;-1.56;100.00
40171;BME280;37650;52.790;18.268;2023-01-28T16:31:09;101531.52;;;-1.50;100.00
40171;BME280;37650;52.790;18.268;2023-01-28T16:34:31;101529.00;;;-1.54;100.00
40171;BME280;37650;52.790;18.268;2023-01-28T16:37:54;101535.52;;;-1.59;100.00
40171;BME280;37650;52.790;18.268;2023-01-28T16:41:27;101539.93;;;-1.62;100.00
40171;BME280;37650;52.790;18.268;2023-01-28T16:44:49;101543.33;;;-1.63;100.00
40171;BME280;37650;52.790;18.268;2023-01-28T16:48:11;101546.56;;;-1.64;100.00
40171;BME280;37650;52.790;18.268;2023-01-28T16:51:34;101545.02;;;-1.64;100.00
40171;BME280;37650;52.790;18.268;2023-01-28T16:54:56;101549.75;;;-1.62;100.00
40171;BME280;37650;52.790;18.268;2023-01-28T16:58:21;101559.28;;;-1.54;100.00
40171;BME280;37650;52.790;18.268;2023-01-28T17:01:44;101563.73;;;-1.48;100.00
40171;BME280;37650;52.790;18.268;2023-01-28T17:05:08;101564.98;;;-1.47;100.00
40171;BME280;37650;52.790;18.268;2023-01-28T17:08:32;101566.70;;;-1.47;100.00
40171;BME280;37650;52.790;18.268;2023-01-28T17:11:53;101570.20;;;-1.46;100.00
40171;BME280;37650;52.790;18.268;2023-01-28T17:15:15;101584.44;;;-1.47;100.00
40171;BME280;37650;52.790;18.268;2023-01-28T17:18:36;101591.04;;;-1.51;100.00
40171;BME280;37650;52.790;18.268;2023-01-28T17:21:58;101594.92;;;-1.53;100.00
40171;BME280;37650;52.790;18.268;2023-01-28T17:25:20;101600.38;;;-1.54;100.00
40171;BME280;37650;52.790;18.268;2023-01-28T17:28:42;101596.40;;;-1.55;100.00
40171;BME280;37650;52.790;18.268;2023-01-28T17:32:04;101594.75;;;-1.53;100.00
40171;BME280;37650;52.790;18.268;2023-01-28T17:35:26;101595.09;;;-1.48;100.00
40171;BME280;37650;52.790;18.268;2023-01-28T17:38:49;101586.98;;;-1.48;100.00
40171;BME280;37650;52.790;18.268;2023-01-28T17:42:12;101600.83;;;-1.46;100.00
40171;BME280;37650;52.790;18.268;2023-01-28T17:45:36;101602.70;;;-1.47;100.00
40171;BME280;37650;52.790;18.268;2023-01-28T17:48:57;101602.66;;;-1.48;100.00
40171;BME280;37650;52.790;18.268;2023-01-28T17:52:18;101594.31;;;-1.50;100.00
40171;BME280;37650;52.790;18.268;2023-01-28T17:55:41;101586.70;;;-1.52;100.00
40171;BME280;37650;52.790;18.268;2023-01-28T17:59:03;101590.09;;;-1.53;100.00
40171;BME280;37650;52.790;18.268;2023-01-28T18:02:27;101582.01;;;-1.59;100.00
40171;BME280;37650;52.790;18.268;2023-01-28T18:05:58;101583.14;;;-1.61;100.00
40171;BME280;37650;52.790;18.268;2023-01-28T18:09:20;101578.27;;;-1.57;100.00
40171;BME280;37650;52.790;18.268;2023-01-28T18:12:42;101573.82;;;-1.51;100.00
40171;BME280;37650;52.790;18.268;2023-01-28T18:16:07;101570.41;;;-1.50;100.00
40171;BME280;37650;52.790;18.268;2023-01-28T18:19:30;101569.98;;;-1.53;100.00
40171;BME280;37650;52.790;18.268;2023-01-28T18:22:51;101578.31;;;-1.61;100.00
40171;BME280;37650;52.790;18.268;2023-01-28T18:26:13;101586.72;;;-1.62;100.00
40171;BME280;37650;52.790;18.268;2023-01-28T18:29:35;101578.17;;;-1.65;100.00
40171;BME280;37650;52.790;18.268;2023-01-28T18:32:57;101582.69;;;-1.70;100.00
40171;BME280;37650;52.790;18.268;2023-01-28T18:36:19;101583.62;;;-1.67;100.00